<?xml version="1.0" encoding="UTF-8" standalone="no" ?>
<gpx xmlns="http://www.topografix.com/GPX/1/1" xmlns:xsi="http://www.w3.org/2001/XMLSchema-instance" xsi:schemaLocation="http://www.topografix.com/GPX/1/1 http://www.topografix.com/GPX/1/1/gpx.xsd" version="1.1" creator="VisuGPX - https://www.visugpx.com">
  <metadata>
    <name>Clecy_RochersHouleParcs_12km</name>
    <desc><![CDATA[gnerando idor:8731378]]></desc>
  </metadata>
  <trk>
    <name><![CDATA[Clecy_RochersHouleParcs_12.2km-8731378]]></name>
    <extensions>
      <line xmlns="http://www.topografix.com/GPX/gpx_style/0/2">
        <color>0000FF</color>
        <width>4</width>
      </line>
    </extensions>
    <trkseg>
      <trkpt lat="48.90806" lon="-0.4733">
        <ele>52</ele>
        <time>2023-11-01T13:51:08Z</time>
      </trkpt>
      <trkpt lat="48.90817" lon="-0.47308">
        <ele>51</ele>
        <time>2023-11-01T13:51:32Z</time>
      </trkpt>
      <trkpt lat="48.90833" lon="-0.47292">
        <ele>50</ele>
        <time>2023-11-01T13:51:58Z</time>
      </trkpt>
      <trkpt lat="48.90851" lon="-0.47295">
        <ele>48</ele>
        <time>2023-11-01T13:52:22Z</time>
      </trkpt>
      <trkpt lat="48.90869" lon="-0.47304">
        <ele>45</ele>
        <time>2023-11-01T13:52:47Z</time>
      </trkpt>
      <trkpt lat="48.90892" lon="-0.47351">
        <ele>43</ele>
        <time>2023-11-01T13:53:39Z</time>
      </trkpt>
      <trkpt lat="48.909" lon="-0.47377">
        <ele>42</ele>
        <time>2023-11-01T13:54:04Z</time>
      </trkpt>
      <trkpt lat="48.90917" lon="-0.4749">
        <ele>43</ele>
        <time>2023-11-01T13:55:45Z</time>
      </trkpt>
      <trkpt lat="48.90923" lon="-0.47517">
        <ele>46</ele>
        <time>2023-11-01T13:56:10Z</time>
      </trkpt>
      <trkpt lat="48.90925" lon="-0.47545">
        <ele>49</ele>
        <time>2023-11-01T13:56:35Z</time>
      </trkpt>
      <trkpt lat="48.90931" lon="-0.47572">
        <ele>52</ele>
        <time>2023-11-01T13:57:00Z</time>
      </trkpt>
      <trkpt lat="48.90943" lon="-0.47593">
        <ele>54</ele>
        <time>2023-11-01T13:57:25Z</time>
      </trkpt>
      <trkpt lat="48.90957" lon="-0.4761">
        <ele>56</ele>
        <time>2023-11-01T13:57:49Z</time>
      </trkpt>
      <trkpt lat="48.90974" lon="-0.47622">
        <ele>56</ele>
        <time>2023-11-01T13:58:14Z</time>
      </trkpt>
      <trkpt lat="48.90992" lon="-0.47628">
        <ele>55</ele>
        <time>2023-11-01T13:58:38Z</time>
      </trkpt>
      <trkpt lat="48.91011" lon="-0.47627">
        <ele>54</ele>
        <time>2023-11-01T13:59:03Z</time>
      </trkpt>
      <trkpt lat="48.91047" lon="-0.47618">
        <ele>52</ele>
        <time>2023-11-01T13:59:52Z</time>
      </trkpt>
      <trkpt lat="48.91065" lon="-0.4762">
        <ele>54</ele>
        <time>2023-11-01T14:00:16Z</time>
      </trkpt>
      <trkpt lat="48.91121" lon="-0.47609">
        <ele>52</ele>
        <time>2023-11-01T14:01:32Z</time>
      </trkpt>
      <trkpt lat="48.91161" lon="-0.47611">
        <ele>53</ele>
        <time>2023-11-01T14:02:25Z</time>
      </trkpt>
      <trkpt lat="48.91198" lon="-0.47605">
        <ele>51</ele>
        <time>2023-11-01T14:03:15Z</time>
      </trkpt>
      <trkpt lat="48.91216" lon="-0.47609">
        <ele>52</ele>
        <time>2023-11-01T14:03:39Z</time>
      </trkpt>
      <trkpt lat="48.91271" lon="-0.47595">
        <ele>46</ele>
        <time>2023-11-01T14:04:53Z</time>
      </trkpt>
      <trkpt lat="48.91309" lon="-0.47595">
        <ele>44</ele>
        <time>2023-11-01T14:05:44Z</time>
      </trkpt>
      <trkpt lat="48.91327" lon="-0.476">
        <ele>44</ele>
        <time>2023-11-01T14:06:08Z</time>
      </trkpt>
      <trkpt lat="48.91345" lon="-0.47609">
        <ele>45</ele>
        <time>2023-11-01T14:06:34Z</time>
      </trkpt>
      <trkpt lat="48.91363" lon="-0.47608">
        <ele>45</ele>
        <time>2023-11-01T14:06:58Z</time>
      </trkpt>
      <trkpt lat="48.91401" lon="-0.47603">
        <ele>45</ele>
        <time>2023-11-01T14:07:49Z</time>
      </trkpt>
      <trkpt lat="48.91418" lon="-0.47592">
        <ele>43</ele>
        <time>2023-11-01T14:08:13Z</time>
      </trkpt>
      <trkpt lat="48.91435" lon="-0.47586">
        <ele>41</ele>
        <time>2023-11-01T14:08:37Z</time>
      </trkpt>
      <trkpt lat="48.91472" lon="-0.47594">
        <ele>41</ele>
        <time>2023-11-01T14:09:26Z</time>
      </trkpt>
      <trkpt lat="48.9149" lon="-0.47593">
        <ele>40</ele>
        <time>2023-11-01T14:09:51Z</time>
      </trkpt>
      <trkpt lat="48.91543" lon="-0.47621">
        <ele>44</ele>
        <time>2023-11-01T14:11:05Z</time>
      </trkpt>
      <trkpt lat="48.9158" lon="-0.47632">
        <ele>44</ele>
        <time>2023-11-01T14:11:56Z</time>
      </trkpt>
      <trkpt lat="48.91598" lon="-0.47632">
        <ele>43</ele>
        <time>2023-11-01T14:12:20Z</time>
      </trkpt>
      <trkpt lat="48.91635" lon="-0.47637">
        <ele>43</ele>
        <time>2023-11-01T14:13:09Z</time>
      </trkpt>
      <trkpt lat="48.91654" lon="-0.47634">
        <ele>42</ele>
        <time>2023-11-01T14:13:35Z</time>
      </trkpt>
      <trkpt lat="48.91667" lon="-0.47652">
        <ele>44</ele>
        <time>2023-11-01T14:13:58Z</time>
      </trkpt>
      <trkpt lat="48.91684" lon="-0.47661">
        <ele>45</ele>
        <time>2023-11-01T14:14:22Z</time>
      </trkpt>
      <trkpt lat="48.91703" lon="-0.47656">
        <ele>45</ele>
        <time>2023-11-01T14:14:48Z</time>
      </trkpt>
      <trkpt lat="48.9174" lon="-0.47656">
        <ele>45</ele>
        <time>2023-11-01T14:15:37Z</time>
      </trkpt>
      <trkpt lat="48.91777" lon="-0.4765">
        <ele>44</ele>
        <time>2023-11-01T14:16:27Z</time>
      </trkpt>
      <trkpt lat="48.91815" lon="-0.4764">
        <ele>43</ele>
        <time>2023-11-01T14:17:18Z</time>
      </trkpt>
      <trkpt lat="48.91834" lon="-0.4764">
        <ele>43</ele>
        <time>2023-11-01T14:17:44Z</time>
      </trkpt>
      <trkpt lat="48.91853" lon="-0.47645">
        <ele>44</ele>
        <time>2023-11-01T14:18:10Z</time>
      </trkpt>
      <trkpt lat="48.91866" lon="-0.47666">
        <ele>46</ele>
        <time>2023-11-01T14:18:35Z</time>
      </trkpt>
      <trkpt lat="48.91883" lon="-0.47661">
        <ele>46</ele>
        <time>2023-11-01T14:18:58Z</time>
      </trkpt>
      <trkpt lat="48.91897" lon="-0.47643">
        <ele>45</ele>
        <time>2023-11-01T14:19:22Z</time>
      </trkpt>
      <trkpt lat="48.91915" lon="-0.47638">
        <ele>45</ele>
        <time>2023-11-01T14:19:47Z</time>
      </trkpt>
      <trkpt lat="48.91969" lon="-0.47615">
        <ele>45</ele>
        <time>2023-11-01T14:21:02Z</time>
      </trkpt>
      <trkpt lat="48.91987" lon="-0.47611">
        <ele>46</ele>
        <time>2023-11-01T14:21:26Z</time>
      </trkpt>
      <trkpt lat="48.92041" lon="-0.47588">
        <ele>47</ele>
        <time>2023-11-01T14:22:41Z</time>
      </trkpt>
      <trkpt lat="48.92151" lon="-0.47564">
        <ele>50</ele>
        <time>2023-11-01T14:25:09Z</time>
      </trkpt>
      <trkpt lat="48.92262" lon="-0.47536">
        <ele>49</ele>
        <time>2023-11-01T14:27:39Z</time>
      </trkpt>
      <trkpt lat="48.92275" lon="-0.47557">
        <ele>50</ele>
        <time>2023-11-01T14:28:05Z</time>
      </trkpt>
      <trkpt lat="48.92298" lon="-0.47666">
        <ele>52</ele>
        <time>2023-11-01T14:29:45Z</time>
      </trkpt>
      <trkpt lat="48.92338" lon="-0.47824">
        <ele>54</ele>
        <time>2023-11-01T14:32:13Z</time>
      </trkpt>
      <trkpt lat="48.92348" lon="-0.47847">
        <ele>54</ele>
        <time>2023-11-01T14:32:38Z</time>
      </trkpt>
      <trkpt lat="48.92384" lon="-0.47914">
        <ele>52</ele>
        <time>2023-11-01T14:33:53Z</time>
      </trkpt>
      <trkpt lat="48.92425" lon="-0.47973">
        <ele>49</ele>
        <time>2023-11-01T14:35:09Z</time>
      </trkpt>
      <trkpt lat="48.92438" lon="-0.47995">
        <ele>46</ele>
        <time>2023-11-01T14:35:35Z</time>
      </trkpt>
      <trkpt lat="48.92448" lon="-0.48019">
        <ele>44</ele>
        <time>2023-11-01T14:36:00Z</time>
      </trkpt>
      <trkpt lat="48.92448" lon="-0.48047">
        <ele>42</ele>
        <time>2023-11-01T14:36:24Z</time>
      </trkpt>
      <trkpt lat="48.92444" lon="-0.48075">
        <ele>40</ele>
        <time>2023-11-01T14:36:49Z</time>
      </trkpt>
      <trkpt lat="48.92461" lon="-0.48083">
        <ele>39</ele>
        <time>2023-11-01T14:37:13Z</time>
      </trkpt>
      <trkpt lat="48.92479" lon="-0.48088">
        <ele>38</ele>
        <time>2023-11-01T14:37:37Z</time>
      </trkpt>
      <trkpt lat="48.92498" lon="-0.48087">
        <ele>37</ele>
        <time>2023-11-01T14:38:03Z</time>
      </trkpt>
      <trkpt lat="48.92517" lon="-0.4809">
        <ele>36</ele>
        <time>2023-11-01T14:38:28Z</time>
      </trkpt>
      <trkpt lat="48.92547" lon="-0.48058">
        <ele>36</ele>
        <time>2023-11-01T14:39:17Z</time>
      </trkpt>
      <trkpt lat="48.9258" lon="-0.48037">
        <ele>35</ele>
        <time>2023-11-01T14:40:05Z</time>
      </trkpt>
      <trkpt lat="48.92598" lon="-0.4803">
        <ele>34</ele>
        <time>2023-11-01T14:40:30Z</time>
      </trkpt>
      <trkpt lat="48.92616" lon="-0.48027">
        <ele>34</ele>
        <time>2023-11-01T14:40:54Z</time>
      </trkpt>
      <trkpt lat="48.92635" lon="-0.48027">
        <ele>34</ele>
        <time>2023-11-01T14:41:19Z</time>
      </trkpt>
      <trkpt lat="48.92653" lon="-0.48031">
        <ele>33</ele>
        <time>2023-11-01T14:41:44Z</time>
      </trkpt>
      <trkpt lat="48.9267" lon="-0.48026">
        <ele>33</ele>
        <time>2023-11-01T14:42:07Z</time>
      </trkpt>
      <trkpt lat="48.92744" lon="-0.48026">
        <ele>38</ele>
        <time>2023-11-01T14:43:45Z</time>
      </trkpt>
      <trkpt lat="48.92755" lon="-0.48049">
        <ele>39</ele>
        <time>2023-11-01T14:44:10Z</time>
      </trkpt>
      <trkpt lat="48.92759" lon="-0.48104">
        <ele>39</ele>
        <time>2023-11-01T14:44:59Z</time>
      </trkpt>
      <trkpt lat="48.9276" lon="-0.48161">
        <ele>40</ele>
        <time>2023-11-01T14:45:49Z</time>
      </trkpt>
      <trkpt lat="48.9277" lon="-0.48185">
        <ele>41</ele>
        <time>2023-11-01T14:46:14Z</time>
      </trkpt>
      <trkpt lat="48.92783" lon="-0.48203">
        <ele>42</ele>
        <time>2023-11-01T14:46:37Z</time>
      </trkpt>
      <trkpt lat="48.9279" lon="-0.4823">
        <ele>43</ele>
        <time>2023-11-01T14:47:03Z</time>
      </trkpt>
      <trkpt lat="48.92798" lon="-0.48286">
        <ele>43</ele>
        <time>2023-11-01T14:47:53Z</time>
      </trkpt>
      <trkpt lat="48.9281" lon="-0.48308">
        <ele>44</ele>
        <time>2023-11-01T14:48:18Z</time>
      </trkpt>
      <trkpt lat="48.92814" lon="-0.48281">
        <ele>46</ele>
        <time>2023-11-01T14:48:42Z</time>
      </trkpt>
      <trkpt lat="48.92812" lon="-0.48197">
        <ele>47</ele>
        <time>2023-11-01T14:49:56Z</time>
      </trkpt>
      <trkpt lat="48.92816" lon="-0.4817">
        <ele>48</ele>
        <time>2023-11-01T14:50:20Z</time>
      </trkpt>
      <trkpt lat="48.9283" lon="-0.48118">
        <ele>51</ele>
        <time>2023-11-01T14:51:09Z</time>
      </trkpt>
      <trkpt lat="48.92866" lon="-0.48104">
        <ele>60</ele>
        <time>2023-11-01T14:51:59Z</time>
      </trkpt>
      <trkpt lat="48.9288" lon="-0.48085">
        <ele>65</ele>
        <time>2023-11-01T14:52:24Z</time>
      </trkpt>
      <trkpt lat="48.92912" lon="-0.48055">
        <ele>74</ele>
        <time>2023-11-01T14:53:14Z</time>
      </trkpt>
      <trkpt lat="48.92934" lon="-0.48009">
        <ele>83</ele>
        <time>2023-11-01T14:54:04Z</time>
      </trkpt>
      <trkpt lat="48.92942" lon="-0.47985">
        <ele>88</ele>
        <time>2023-11-01T14:54:28Z</time>
      </trkpt>
      <trkpt lat="48.92946" lon="-0.47957">
        <ele>92</ele>
        <time>2023-11-01T14:54:53Z</time>
      </trkpt>
      <trkpt lat="48.92964" lon="-0.47908">
        <ele>102</ele>
        <time>2023-11-01T14:55:42Z</time>
      </trkpt>
      <trkpt lat="48.92971" lon="-0.47882">
        <ele>107</ele>
        <time>2023-11-01T14:56:07Z</time>
      </trkpt>
      <trkpt lat="48.92952" lon="-0.4788">
        <ele>104</ele>
        <time>2023-11-01T14:56:32Z</time>
      </trkpt>
      <trkpt lat="48.92934" lon="-0.47884">
        <ele>100</ele>
        <time>2023-11-01T14:56:56Z</time>
      </trkpt>
      <trkpt lat="48.92916" lon="-0.4788">
        <ele>98</ele>
        <time>2023-11-01T14:57:21Z</time>
      </trkpt>
      <trkpt lat="48.92916" lon="-0.47824">
        <ele>113</ele>
        <time>2023-11-01T14:58:10Z</time>
      </trkpt>
      <trkpt lat="48.92922" lon="-0.47769">
        <ele>125</ele>
        <time>2023-11-01T14:58:59Z</time>
      </trkpt>
      <trkpt lat="48.9292" lon="-0.47742">
        <ele>129</ele>
        <time>2023-11-01T14:59:22Z</time>
      </trkpt>
      <trkpt lat="48.92954" lon="-0.47677">
        <ele>139</ele>
        <time>2023-11-01T15:00:35Z</time>
      </trkpt>
      <trkpt lat="48.92979" lon="-0.476">
        <ele>149</ele>
        <time>2023-11-01T15:01:51Z</time>
      </trkpt>
      <trkpt lat="48.92979" lon="-0.47571">
        <ele>148</ele>
        <time>2023-11-01T15:02:16Z</time>
      </trkpt>
      <trkpt lat="48.92974" lon="-0.47544">
        <ele>144</ele>
        <time>2023-11-01T15:02:41Z</time>
      </trkpt>
      <trkpt lat="48.92985" lon="-0.47521">
        <ele>147</ele>
        <time>2023-11-01T15:03:06Z</time>
      </trkpt>
      <trkpt lat="48.92986" lon="-0.47494">
        <ele>146</ele>
        <time>2023-11-01T15:03:29Z</time>
      </trkpt>
      <trkpt lat="48.92983" lon="-0.47437">
        <ele>140</ele>
        <time>2023-11-01T15:04:19Z</time>
      </trkpt>
      <trkpt lat="48.92984" lon="-0.47408">
        <ele>139</ele>
        <time>2023-11-01T15:04:45Z</time>
      </trkpt>
      <trkpt lat="48.9298" lon="-0.47381">
        <ele>138</ele>
        <time>2023-11-01T15:05:09Z</time>
      </trkpt>
      <trkpt lat="48.92972" lon="-0.47355">
        <ele>133</ele>
        <time>2023-11-01T15:05:34Z</time>
      </trkpt>
      <trkpt lat="48.9297" lon="-0.47328">
        <ele>133</ele>
        <time>2023-11-01T15:05:58Z</time>
      </trkpt>
      <trkpt lat="48.92963" lon="-0.47301">
        <ele>131</ele>
        <time>2023-11-01T15:06:24Z</time>
      </trkpt>
      <trkpt lat="48.92952" lon="-0.4728">
        <ele>125</ele>
        <time>2023-11-01T15:06:47Z</time>
      </trkpt>
      <trkpt lat="48.92941" lon="-0.47227">
        <ele>126</ele>
        <time>2023-11-01T15:07:36Z</time>
      </trkpt>
      <trkpt lat="48.92939" lon="-0.472">
        <ele>131</ele>
        <time>2023-11-01T15:08:00Z</time>
      </trkpt>
      <trkpt lat="48.92898" lon="-0.47142">
        <ele>121</ele>
        <time>2023-11-01T15:09:14Z</time>
      </trkpt>
      <trkpt lat="48.9286" lon="-0.47079">
        <ele>121</ele>
        <time>2023-11-01T15:10:29Z</time>
      </trkpt>
      <trkpt lat="48.92828" lon="-0.47009">
        <ele>127</ele>
        <time>2023-11-01T15:11:44Z</time>
      </trkpt>
      <trkpt lat="48.92811" lon="-0.47">
        <ele>123</ele>
        <time>2023-11-01T15:12:08Z</time>
      </trkpt>
      <trkpt lat="48.92793" lon="-0.46994">
        <ele>117</ele>
        <time>2023-11-01T15:12:33Z</time>
      </trkpt>
      <trkpt lat="48.92779" lon="-0.46977">
        <ele>118</ele>
        <time>2023-11-01T15:12:57Z</time>
      </trkpt>
      <trkpt lat="48.92763" lon="-0.46965">
        <ele>117</ele>
        <time>2023-11-01T15:13:20Z</time>
      </trkpt>
      <trkpt lat="48.92749" lon="-0.46946">
        <ele>120</ele>
        <time>2023-11-01T15:13:45Z</time>
      </trkpt>
      <trkpt lat="48.92733" lon="-0.46932">
        <ele>122</ele>
        <time>2023-11-01T15:14:10Z</time>
      </trkpt>
      <trkpt lat="48.92698" lon="-0.46914">
        <ele>120</ele>
        <time>2023-11-01T15:14:59Z</time>
      </trkpt>
      <trkpt lat="48.92682" lon="-0.46899">
        <ele>123</ele>
        <time>2023-11-01T15:15:24Z</time>
      </trkpt>
      <trkpt lat="48.92665" lon="-0.46889">
        <ele>122</ele>
        <time>2023-11-01T15:15:49Z</time>
      </trkpt>
      <trkpt lat="48.92647" lon="-0.46882">
        <ele>123</ele>
        <time>2023-11-01T15:16:14Z</time>
      </trkpt>
      <trkpt lat="48.92573" lon="-0.46873">
        <ele>117</ele>
        <time>2023-11-01T15:17:53Z</time>
      </trkpt>
      <trkpt lat="48.92537" lon="-0.46876">
        <ele>113</ele>
        <time>2023-11-01T15:18:41Z</time>
      </trkpt>
      <trkpt lat="48.92464" lon="-0.46904">
        <ele>98</ele>
        <time>2023-11-01T15:20:21Z</time>
      </trkpt>
      <trkpt lat="48.92446" lon="-0.46908">
        <ele>97</ele>
        <time>2023-11-01T15:20:45Z</time>
      </trkpt>
      <trkpt lat="48.92409" lon="-0.4691">
        <ele>97</ele>
        <time>2023-11-01T15:21:35Z</time>
      </trkpt>
      <trkpt lat="48.92391" lon="-0.46914">
        <ele>95</ele>
        <time>2023-11-01T15:21:59Z</time>
      </trkpt>
      <trkpt lat="48.92356" lon="-0.46928">
        <ele>89</ele>
        <time>2023-11-01T15:22:47Z</time>
      </trkpt>
      <trkpt lat="48.92338" lon="-0.46925">
        <ele>90</ele>
        <time>2023-11-01T15:23:12Z</time>
      </trkpt>
      <trkpt lat="48.9232" lon="-0.46915">
        <ele>94</ele>
        <time>2023-11-01T15:23:37Z</time>
      </trkpt>
      <trkpt lat="48.92303" lon="-0.46928">
        <ele>90</ele>
        <time>2023-11-01T15:24:03Z</time>
      </trkpt>
      <trkpt lat="48.92285" lon="-0.46936">
        <ele>88</ele>
        <time>2023-11-01T15:24:28Z</time>
      </trkpt>
      <trkpt lat="48.92268" lon="-0.46947">
        <ele>85</ele>
        <time>2023-11-01T15:24:52Z</time>
      </trkpt>
      <trkpt lat="48.92231" lon="-0.46957">
        <ele>85</ele>
        <time>2023-11-01T15:25:42Z</time>
      </trkpt>
      <trkpt lat="48.92194" lon="-0.46959">
        <ele>88</ele>
        <time>2023-11-01T15:26:32Z</time>
      </trkpt>
      <trkpt lat="48.92176" lon="-0.46966">
        <ele>88</ele>
        <time>2023-11-01T15:26:57Z</time>
      </trkpt>
      <trkpt lat="48.92157" lon="-0.4697">
        <ele>88</ele>
        <time>2023-11-01T15:27:22Z</time>
      </trkpt>
      <trkpt lat="48.92141" lon="-0.46985">
        <ele>84</ele>
        <time>2023-11-01T15:27:47Z</time>
      </trkpt>
      <trkpt lat="48.92123" lon="-0.46994">
        <ele>83</ele>
        <time>2023-11-01T15:28:13Z</time>
      </trkpt>
      <trkpt lat="48.92105" lon="-0.46997">
        <ele>84</ele>
        <time>2023-11-01T15:28:37Z</time>
      </trkpt>
      <trkpt lat="48.92069" lon="-0.46993">
        <ele>86</ele>
        <time>2023-11-01T15:29:25Z</time>
      </trkpt>
      <trkpt lat="48.92051" lon="-0.47001">
        <ele>83</ele>
        <time>2023-11-01T15:29:50Z</time>
      </trkpt>
      <trkpt lat="48.92032" lon="-0.47006">
        <ele>80</ele>
        <time>2023-11-01T15:30:16Z</time>
      </trkpt>
      <trkpt lat="48.91995" lon="-0.47007">
        <ele>78</ele>
        <time>2023-11-01T15:31:05Z</time>
      </trkpt>
      <trkpt lat="48.9194" lon="-0.47001">
        <ele>78</ele>
        <time>2023-11-01T15:32:19Z</time>
      </trkpt>
      <trkpt lat="48.91883" lon="-0.47002">
        <ele>73</ele>
        <time>2023-11-01T15:33:35Z</time>
      </trkpt>
      <trkpt lat="48.91845" lon="-0.46994">
        <ele>70</ele>
        <time>2023-11-01T15:34:26Z</time>
      </trkpt>
      <trkpt lat="48.91827" lon="-0.46998">
        <ele>67</ele>
        <time>2023-11-01T15:34:50Z</time>
      </trkpt>
      <trkpt lat="48.91818" lon="-0.47022">
        <ele>63</ele>
        <time>2023-11-01T15:35:14Z</time>
      </trkpt>
      <trkpt lat="48.91802" lon="-0.47035">
        <ele>59</ele>
        <time>2023-11-01T15:35:39Z</time>
      </trkpt>
      <trkpt lat="48.91783" lon="-0.47037">
        <ele>57</ele>
        <time>2023-11-01T15:36:04Z</time>
      </trkpt>
      <trkpt lat="48.91767" lon="-0.47049">
        <ele>54</ele>
        <time>2023-11-01T15:36:28Z</time>
      </trkpt>
      <trkpt lat="48.91749" lon="-0.47098">
        <ele>49</ele>
        <time>2023-11-01T15:37:17Z</time>
      </trkpt>
      <trkpt lat="48.9173" lon="-0.47096">
        <ele>49</ele>
        <time>2023-11-01T15:37:42Z</time>
      </trkpt>
      <trkpt lat="48.91731" lon="-0.47125">
        <ele>48</ele>
        <time>2023-11-01T15:38:08Z</time>
      </trkpt>
      <trkpt lat="48.91719" lon="-0.47146">
        <ele>46</ele>
        <time>2023-11-01T15:38:32Z</time>
      </trkpt>
      <trkpt lat="48.91713" lon="-0.47202">
        <ele>44</ele>
        <time>2023-11-01T15:39:22Z</time>
      </trkpt>
      <trkpt lat="48.91717" lon="-0.47228">
        <ele>43</ele>
        <time>2023-11-01T15:39:45Z</time>
      </trkpt>
      <trkpt lat="48.91712" lon="-0.47256">
        <ele>42</ele>
        <time>2023-11-01T15:40:11Z</time>
      </trkpt>
      <trkpt lat="48.91698" lon="-0.47274">
        <ele>41</ele>
        <time>2023-11-01T15:40:35Z</time>
      </trkpt>
      <trkpt lat="48.91688" lon="-0.47299">
        <ele>40</ele>
        <time>2023-11-01T15:41:01Z</time>
      </trkpt>
      <trkpt lat="48.91681" lon="-0.47325">
        <ele>39</ele>
        <time>2023-11-01T15:41:26Z</time>
      </trkpt>
      <trkpt lat="48.9167" lon="-0.47347">
        <ele>39</ele>
        <time>2023-11-01T15:41:50Z</time>
      </trkpt>
      <trkpt lat="48.91651" lon="-0.47346">
        <ele>39</ele>
        <time>2023-11-01T15:42:15Z</time>
      </trkpt>
      <trkpt lat="48.91558" lon="-0.47354">
        <ele>41</ele>
        <time>2023-11-01T15:44:20Z</time>
      </trkpt>
      <trkpt lat="48.9154" lon="-0.47359">
        <ele>41</ele>
        <time>2023-11-01T15:44:44Z</time>
      </trkpt>
      <trkpt lat="48.91446" lon="-0.4736">
        <ele>40</ele>
        <time>2023-11-01T15:46:49Z</time>
      </trkpt>
      <trkpt lat="48.9139" lon="-0.47374">
        <ele>41</ele>
        <time>2023-11-01T15:48:05Z</time>
      </trkpt>
      <trkpt lat="48.91373" lon="-0.4736">
        <ele>42</ele>
        <time>2023-11-01T15:48:31Z</time>
      </trkpt>
      <trkpt lat="48.91367" lon="-0.47334">
        <ele>43</ele>
        <time>2023-11-01T15:48:55Z</time>
      </trkpt>
      <trkpt lat="48.9135" lon="-0.47285">
        <ele>47</ele>
        <time>2023-11-01T15:49:44Z</time>
      </trkpt>
      <trkpt lat="48.91347" lon="-0.47258">
        <ele>49</ele>
        <time>2023-11-01T15:50:08Z</time>
      </trkpt>
      <trkpt lat="48.9134" lon="-0.47233">
        <ele>50</ele>
        <time>2023-11-01T15:50:32Z</time>
      </trkpt>
      <trkpt lat="48.91322" lon="-0.47235">
        <ele>51</ele>
        <time>2023-11-01T15:50:56Z</time>
      </trkpt>
      <trkpt lat="48.91305" lon="-0.47243">
        <ele>52</ele>
        <time>2023-11-01T15:51:19Z</time>
      </trkpt>
      <trkpt lat="48.91286" lon="-0.47244">
        <ele>53</ele>
        <time>2023-11-01T15:51:45Z</time>
      </trkpt>
      <trkpt lat="48.91276" lon="-0.4722">
        <ele>54</ele>
        <time>2023-11-01T15:52:10Z</time>
      </trkpt>
      <trkpt lat="48.9127" lon="-0.47194">
        <ele>57</ele>
        <time>2023-11-01T15:52:34Z</time>
      </trkpt>
      <trkpt lat="48.91261" lon="-0.4717">
        <ele>59</ele>
        <time>2023-11-01T15:52:58Z</time>
      </trkpt>
      <trkpt lat="48.91251" lon="-0.47146">
        <ele>63</ele>
        <time>2023-11-01T15:53:23Z</time>
      </trkpt>
      <trkpt lat="48.91228" lon="-0.47104">
        <ele>71</ele>
        <time>2023-11-01T15:54:11Z</time>
      </trkpt>
      <trkpt lat="48.9121" lon="-0.4711">
        <ele>74</ele>
        <time>2023-11-01T15:54:36Z</time>
      </trkpt>
      <trkpt lat="48.91193" lon="-0.47096">
        <ele>79</ele>
        <time>2023-11-01T15:55:01Z</time>
      </trkpt>
      <trkpt lat="48.91133" lon="-0.4703">
        <ele>89</ele>
        <time>2023-11-01T15:56:40Z</time>
      </trkpt>
      <trkpt lat="48.91092" lon="-0.46975">
        <ele>88</ele>
        <time>2023-11-01T15:57:53Z</time>
      </trkpt>
      <trkpt lat="48.91081" lon="-0.46953">
        <ele>86</ele>
        <time>2023-11-01T15:58:17Z</time>
      </trkpt>
      <trkpt lat="48.9109" lon="-0.46929">
        <ele>89</ele>
        <time>2023-11-01T15:58:42Z</time>
      </trkpt>
      <trkpt lat="48.911" lon="-0.46876">
        <ele>87</ele>
        <time>2023-11-01T15:59:30Z</time>
      </trkpt>
      <trkpt lat="48.91109" lon="-0.46853">
        <ele>86</ele>
        <time>2023-11-01T15:59:53Z</time>
      </trkpt>
      <trkpt lat="48.91112" lon="-0.46825">
        <ele>85</ele>
        <time>2023-11-01T16:00:18Z</time>
      </trkpt>
      <trkpt lat="48.91129" lon="-0.46755">
        <ele>91</ele>
        <time>2023-11-01T16:01:24Z</time>
      </trkpt>
      <trkpt lat="48.91137" lon="-0.467">
        <ele>93</ele>
        <time>2023-11-01T16:02:13Z</time>
      </trkpt>
      <trkpt lat="48.91134" lon="-0.46644">
        <ele>93</ele>
        <time>2023-11-01T16:03:02Z</time>
      </trkpt>
      <trkpt lat="48.91135" lon="-0.46617">
        <ele>94</ele>
        <time>2023-11-01T16:03:26Z</time>
      </trkpt>
      <trkpt lat="48.91126" lon="-0.46592">
        <ele>92</ele>
        <time>2023-11-01T16:03:51Z</time>
      </trkpt>
      <trkpt lat="48.91113" lon="-0.46572">
        <ele>90</ele>
        <time>2023-11-01T16:04:16Z</time>
      </trkpt>
      <trkpt lat="48.91124" lon="-0.4655">
        <ele>93</ele>
        <time>2023-11-01T16:04:40Z</time>
      </trkpt>
      <trkpt lat="48.91127" lon="-0.46522">
        <ele>95</ele>
        <time>2023-11-01T16:05:05Z</time>
      </trkpt>
      <trkpt lat="48.91122" lon="-0.46495">
        <ele>95</ele>
        <time>2023-11-01T16:05:30Z</time>
      </trkpt>
      <trkpt lat="48.91121" lon="-0.46467">
        <ele>95</ele>
        <time>2023-11-01T16:05:54Z</time>
      </trkpt>
      <trkpt lat="48.91127" lon="-0.46384">
        <ele>99</ele>
        <time>2023-11-01T16:07:07Z</time>
      </trkpt>
      <trkpt lat="48.91123" lon="-0.46357">
        <ele>98</ele>
        <time>2023-11-01T16:07:32Z</time>
      </trkpt>
      <trkpt lat="48.91115" lon="-0.46331">
        <ele>96</ele>
        <time>2023-11-01T16:07:57Z</time>
      </trkpt>
      <trkpt lat="48.91127" lon="-0.4622">
        <ele>104</ele>
        <time>2023-11-01T16:09:36Z</time>
      </trkpt>
      <trkpt lat="48.91109" lon="-0.46171">
        <ele>103</ele>
        <time>2023-11-01T16:10:25Z</time>
      </trkpt>
      <trkpt lat="48.91103" lon="-0.46144">
        <ele>105</ele>
        <time>2023-11-01T16:10:50Z</time>
      </trkpt>
      <trkpt lat="48.91105" lon="-0.46087">
        <ele>110</ele>
        <time>2023-11-01T16:11:40Z</time>
      </trkpt>
      <trkpt lat="48.91088" lon="-0.46037">
        <ele>115</ele>
        <time>2023-11-01T16:12:29Z</time>
      </trkpt>
      <trkpt lat="48.9108" lon="-0.45982">
        <ele>118</ele>
        <time>2023-11-01T16:13:19Z</time>
      </trkpt>
      <trkpt lat="48.91074" lon="-0.45898">
        <ele>118</ele>
        <time>2023-11-01T16:14:33Z</time>
      </trkpt>
      <trkpt lat="48.91073" lon="-0.45814">
        <ele>123</ele>
        <time>2023-11-01T16:15:46Z</time>
      </trkpt>
      <trkpt lat="48.9107" lon="-0.45786">
        <ele>124</ele>
        <time>2023-11-01T16:16:11Z</time>
      </trkpt>
      <trkpt lat="48.91053" lon="-0.45706">
        <ele>126</ele>
        <time>2023-11-01T16:17:25Z</time>
      </trkpt>
      <trkpt lat="48.91036" lon="-0.45657">
        <ele>126</ele>
        <time>2023-11-01T16:18:14Z</time>
      </trkpt>
      <trkpt lat="48.91043" lon="-0.45629">
        <ele>132</ele>
        <time>2023-11-01T16:18:40Z</time>
      </trkpt>
      <trkpt lat="48.91041" lon="-0.45601">
        <ele>136</ele>
        <time>2023-11-01T16:19:05Z</time>
      </trkpt>
      <trkpt lat="48.91024" lon="-0.45552">
        <ele>139</ele>
        <time>2023-11-01T16:19:53Z</time>
      </trkpt>
      <trkpt lat="48.91013" lon="-0.4553">
        <ele>142</ele>
        <time>2023-11-01T16:20:17Z</time>
      </trkpt>
      <trkpt lat="48.90999" lon="-0.45512">
        <ele>147</ele>
        <time>2023-11-01T16:20:42Z</time>
      </trkpt>
      <trkpt lat="48.90987" lon="-0.45491">
        <ele>146</ele>
        <time>2023-11-01T16:21:06Z</time>
      </trkpt>
      <trkpt lat="48.90967" lon="-0.45445">
        <ele>145</ele>
        <time>2023-11-01T16:21:55Z</time>
      </trkpt>
      <trkpt lat="48.90962" lon="-0.45417">
        <ele>148</ele>
        <time>2023-11-01T16:22:20Z</time>
      </trkpt>
      <trkpt lat="48.90963" lon="-0.4539">
        <ele>148</ele>
        <time>2023-11-01T16:22:44Z</time>
      </trkpt>
      <trkpt lat="48.90957" lon="-0.45363">
        <ele>147</ele>
        <time>2023-11-01T16:23:09Z</time>
      </trkpt>
      <trkpt lat="48.90956" lon="-0.45335">
        <ele>147</ele>
        <time>2023-11-01T16:23:33Z</time>
      </trkpt>
      <trkpt lat="48.90952" lon="-0.45308">
        <ele>146</ele>
        <time>2023-11-01T16:23:58Z</time>
      </trkpt>
      <trkpt lat="48.90944" lon="-0.45283">
        <ele>145</ele>
        <time>2023-11-01T16:24:22Z</time>
      </trkpt>
      <trkpt lat="48.9094" lon="-0.4517">
        <ele>145</ele>
        <time>2023-11-01T16:26:01Z</time>
      </trkpt>
      <trkpt lat="48.90948" lon="-0.45145">
        <ele>146</ele>
        <time>2023-11-01T16:26:26Z</time>
      </trkpt>
      <trkpt lat="48.90959" lon="-0.45122">
        <ele>147</ele>
        <time>2023-11-01T16:26:51Z</time>
      </trkpt>
      <trkpt lat="48.90963" lon="-0.45094">
        <ele>147</ele>
        <time>2023-11-01T16:27:16Z</time>
      </trkpt>
      <trkpt lat="48.90945" lon="-0.45098">
        <ele>147</ele>
        <time>2023-11-01T16:27:40Z</time>
      </trkpt>
      <trkpt lat="48.90928" lon="-0.45111">
        <ele>147</ele>
        <time>2023-11-01T16:28:05Z</time>
      </trkpt>
      <trkpt lat="48.90893" lon="-0.45126">
        <ele>142</ele>
        <time>2023-11-01T16:28:54Z</time>
      </trkpt>
      <trkpt lat="48.90874" lon="-0.45125">
        <ele>139</ele>
        <time>2023-11-01T16:29:19Z</time>
      </trkpt>
      <trkpt lat="48.90857" lon="-0.45116">
        <ele>138</ele>
        <time>2023-11-01T16:29:43Z</time>
      </trkpt>
      <trkpt lat="48.90843" lon="-0.45097">
        <ele>139</ele>
        <time>2023-11-01T16:30:08Z</time>
      </trkpt>
      <trkpt lat="48.90827" lon="-0.45084">
        <ele>139</ele>
        <time>2023-11-01T16:30:33Z</time>
      </trkpt>
      <trkpt lat="48.90815" lon="-0.45062">
        <ele>141</ele>
        <time>2023-11-01T16:30:58Z</time>
      </trkpt>
      <trkpt lat="48.90782" lon="-0.4504">
        <ele>139</ele>
        <time>2023-11-01T16:31:46Z</time>
      </trkpt>
      <trkpt lat="48.90764" lon="-0.45035">
        <ele>137</ele>
        <time>2023-11-01T16:32:10Z</time>
      </trkpt>
      <trkpt lat="48.90745" lon="-0.45035">
        <ele>134</ele>
        <time>2023-11-01T16:32:36Z</time>
      </trkpt>
      <trkpt lat="48.90671" lon="-0.45044">
        <ele>124</ele>
        <time>2023-11-01T16:34:15Z</time>
      </trkpt>
      <trkpt lat="48.90635" lon="-0.45045">
        <ele>119</ele>
        <time>2023-11-01T16:35:03Z</time>
      </trkpt>
      <trkpt lat="48.90616" lon="-0.4505">
        <ele>117</ele>
        <time>2023-11-01T16:35:28Z</time>
      </trkpt>
      <trkpt lat="48.90597" lon="-0.45047">
        <ele>115</ele>
        <time>2023-11-01T16:35:54Z</time>
      </trkpt>
      <trkpt lat="48.9056" lon="-0.45047">
        <ele>111</ele>
        <time>2023-11-01T16:36:43Z</time>
      </trkpt>
      <trkpt lat="48.90487" lon="-0.45036">
        <ele>106</ele>
        <time>2023-11-01T16:38:21Z</time>
      </trkpt>
      <trkpt lat="48.90469" lon="-0.45029">
        <ele>105</ele>
        <time>2023-11-01T16:38:46Z</time>
      </trkpt>
      <trkpt lat="48.90451" lon="-0.4503">
        <ele>103</ele>
        <time>2023-11-01T16:39:10Z</time>
      </trkpt>
      <trkpt lat="48.90433" lon="-0.45027">
        <ele>102</ele>
        <time>2023-11-01T16:39:34Z</time>
      </trkpt>
      <trkpt lat="48.90414" lon="-0.4503">
        <ele>100</ele>
        <time>2023-11-01T16:40:00Z</time>
      </trkpt>
      <trkpt lat="48.90383" lon="-0.45062">
        <ele>95</ele>
        <time>2023-11-01T16:40:50Z</time>
      </trkpt>
      <trkpt lat="48.90357" lon="-0.45023">
        <ele>95</ele>
        <time>2023-11-01T16:41:38Z</time>
      </trkpt>
      <trkpt lat="48.9034" lon="-0.45032">
        <ele>93</ele>
        <time>2023-11-01T16:42:02Z</time>
      </trkpt>
      <trkpt lat="48.90325" lon="-0.45051">
        <ele>91</ele>
        <time>2023-11-01T16:42:28Z</time>
      </trkpt>
      <trkpt lat="48.90317" lon="-0.45076">
        <ele>89</ele>
        <time>2023-11-01T16:42:53Z</time>
      </trkpt>
      <trkpt lat="48.90303" lon="-0.45096">
        <ele>88</ele>
        <time>2023-11-01T16:43:18Z</time>
      </trkpt>
      <trkpt lat="48.90292" lon="-0.45119">
        <ele>87</ele>
        <time>2023-11-01T16:43:43Z</time>
      </trkpt>
      <trkpt lat="48.90276" lon="-0.45132">
        <ele>87</ele>
        <time>2023-11-01T16:44:08Z</time>
      </trkpt>
      <trkpt lat="48.90208" lon="-0.45175">
        <ele>85</ele>
        <time>2023-11-01T16:45:46Z</time>
      </trkpt>
      <trkpt lat="48.90159" lon="-0.45214">
        <ele>82</ele>
        <time>2023-11-01T16:47:00Z</time>
      </trkpt>
      <trkpt lat="48.9014" lon="-0.45218">
        <ele>81</ele>
        <time>2023-11-01T16:47:25Z</time>
      </trkpt>
      <trkpt lat="48.90067" lon="-0.4521">
        <ele>83</ele>
        <time>2023-11-01T16:49:03Z</time>
      </trkpt>
      <trkpt lat="48.90011" lon="-0.45212">
        <ele>82</ele>
        <time>2023-11-01T16:50:18Z</time>
      </trkpt>
      <trkpt lat="48.89996" lon="-0.45197">
        <ele>82</ele>
        <time>2023-11-01T16:50:42Z</time>
      </trkpt>
      <trkpt lat="48.89993" lon="-0.45253">
        <ele>80</ele>
        <time>2023-11-01T16:51:31Z</time>
      </trkpt>
      <trkpt lat="48.90006" lon="-0.45304">
        <ele>77</ele>
        <time>2023-11-01T16:52:19Z</time>
      </trkpt>
      <trkpt lat="48.90008" lon="-0.45332">
        <ele>75</ele>
        <time>2023-11-01T16:52:44Z</time>
      </trkpt>
      <trkpt lat="48.90019" lon="-0.45386">
        <ele>70</ele>
        <time>2023-11-01T16:53:33Z</time>
      </trkpt>
      <trkpt lat="48.90033" lon="-0.45523">
        <ele>59</ele>
        <time>2023-11-01T16:55:35Z</time>
      </trkpt>
      <trkpt lat="48.90029" lon="-0.4555">
        <ele>57</ele>
        <time>2023-11-01T16:55:59Z</time>
      </trkpt>
      <trkpt lat="48.90041" lon="-0.45572">
        <ele>54</ele>
        <time>2023-11-01T16:56:24Z</time>
      </trkpt>
      <trkpt lat="48.90077" lon="-0.45575">
        <ele>53</ele>
        <time>2023-11-01T16:57:12Z</time>
      </trkpt>
      <trkpt lat="48.90096" lon="-0.45575">
        <ele>52</ele>
        <time>2023-11-01T16:57:38Z</time>
      </trkpt>
      <trkpt lat="48.90152" lon="-0.45567">
        <ele>51</ele>
        <time>2023-11-01T16:58:53Z</time>
      </trkpt>
      <trkpt lat="48.90207" lon="-0.45551">
        <ele>51</ele>
        <time>2023-11-01T17:00:07Z</time>
      </trkpt>
      <trkpt lat="48.90225" lon="-0.45558">
        <ele>50</ele>
        <time>2023-11-01T17:00:32Z</time>
      </trkpt>
      <trkpt lat="48.9024" lon="-0.45577">
        <ele>47</ele>
        <time>2023-11-01T17:00:58Z</time>
      </trkpt>
      <trkpt lat="48.90266" lon="-0.45618">
        <ele>42</ele>
        <time>2023-11-01T17:01:48Z</time>
      </trkpt>
      <trkpt lat="48.90274" lon="-0.45644">
        <ele>40</ele>
        <time>2023-11-01T17:02:13Z</time>
      </trkpt>
      <trkpt lat="48.90271" lon="-0.45699">
        <ele>39</ele>
        <time>2023-11-01T17:03:02Z</time>
      </trkpt>
      <trkpt lat="48.9028" lon="-0.45723">
        <ele>40</ele>
        <time>2023-11-01T17:03:26Z</time>
      </trkpt>
      <trkpt lat="48.90283" lon="-0.45751">
        <ele>42</ele>
        <time>2023-11-01T17:03:51Z</time>
      </trkpt>
      <trkpt lat="48.90282" lon="-0.4578">
        <ele>46</ele>
        <time>2023-11-01T17:04:16Z</time>
      </trkpt>
      <trkpt lat="48.90272" lon="-0.45803">
        <ele>49</ele>
        <time>2023-11-01T17:04:41Z</time>
      </trkpt>
      <trkpt lat="48.90259" lon="-0.45823">
        <ele>51</ele>
        <time>2023-11-01T17:05:05Z</time>
      </trkpt>
      <trkpt lat="48.90245" lon="-0.45839">
        <ele>53</ele>
        <time>2023-11-01T17:05:29Z</time>
      </trkpt>
      <trkpt lat="48.90212" lon="-0.45867">
        <ele>55</ele>
        <time>2023-11-01T17:06:19Z</time>
      </trkpt>
      <trkpt lat="48.90177" lon="-0.4588">
        <ele>55</ele>
        <time>2023-11-01T17:07:07Z</time>
      </trkpt>
      <trkpt lat="48.9016" lon="-0.45891">
        <ele>56</ele>
        <time>2023-11-01T17:07:32Z</time>
      </trkpt>
      <trkpt lat="48.90144" lon="-0.45908">
        <ele>59</ele>
        <time>2023-11-01T17:07:58Z</time>
      </trkpt>
      <trkpt lat="48.90125" lon="-0.45955">
        <ele>63</ele>
        <time>2023-11-01T17:08:46Z</time>
      </trkpt>
      <trkpt lat="48.90086" lon="-0.46017">
        <ele>68</ele>
        <time>2023-11-01T17:10:02Z</time>
      </trkpt>
      <trkpt lat="48.90072" lon="-0.46035">
        <ele>69</ele>
        <time>2023-11-01T17:10:26Z</time>
      </trkpt>
      <trkpt lat="48.90056" lon="-0.46048">
        <ele>69</ele>
        <time>2023-11-01T17:10:50Z</time>
      </trkpt>
      <trkpt lat="48.90028" lon="-0.46086">
        <ele>71</ele>
        <time>2023-11-01T17:11:40Z</time>
      </trkpt>
      <trkpt lat="48.89987" lon="-0.4618">
        <ele>74</ele>
        <time>2023-11-01T17:13:19Z</time>
      </trkpt>
      <trkpt lat="48.89963" lon="-0.46222">
        <ele>75</ele>
        <time>2023-11-01T17:14:08Z</time>
      </trkpt>
      <trkpt lat="48.89935" lon="-0.4626">
        <ele>75</ele>
        <time>2023-11-01T17:14:58Z</time>
      </trkpt>
      <trkpt lat="48.89862" lon="-0.46345">
        <ele>75</ele>
        <time>2023-11-01T17:17:01Z</time>
      </trkpt>
      <trkpt lat="48.89812" lon="-0.46384">
        <ele>76</ele>
        <time>2023-11-01T17:18:16Z</time>
      </trkpt>
      <trkpt lat="48.89813" lon="-0.46411">
        <ele>75</ele>
        <time>2023-11-01T17:18:40Z</time>
      </trkpt>
      <trkpt lat="48.89823" lon="-0.46434">
        <ele>74</ele>
        <time>2023-11-01T17:19:04Z</time>
      </trkpt>
      <trkpt lat="48.89817" lon="-0.4646">
        <ele>73</ele>
        <time>2023-11-01T17:19:28Z</time>
      </trkpt>
      <trkpt lat="48.898" lon="-0.46473">
        <ele>73</ele>
        <time>2023-11-01T17:19:53Z</time>
      </trkpt>
      <trkpt lat="48.89787" lon="-0.46491">
        <ele>73</ele>
        <time>2023-11-01T17:20:17Z</time>
      </trkpt>
      <trkpt lat="48.89776" lon="-0.46514">
        <ele>74</ele>
        <time>2023-11-01T17:20:42Z</time>
      </trkpt>
      <trkpt lat="48.89779" lon="-0.46543">
        <ele>73</ele>
        <time>2023-11-01T17:21:07Z</time>
      </trkpt>
      <trkpt lat="48.89787" lon="-0.46568">
        <ele>72</ele>
        <time>2023-11-01T17:21:32Z</time>
      </trkpt>
      <trkpt lat="48.89797" lon="-0.46621">
        <ele>70</ele>
        <time>2023-11-01T17:22:20Z</time>
      </trkpt>
      <trkpt lat="48.89832" lon="-0.46752">
        <ele>67</ele>
        <time>2023-11-01T17:24:24Z</time>
      </trkpt>
      <trkpt lat="48.89842" lon="-0.46807">
        <ele>68</ele>
        <time>2023-11-01T17:25:14Z</time>
      </trkpt>
      <trkpt lat="48.89864" lon="-0.46884">
        <ele>68</ele>
        <time>2023-11-01T17:26:28Z</time>
      </trkpt>
      <trkpt lat="48.89868" lon="-0.46912">
        <ele>68</ele>
        <time>2023-11-01T17:26:53Z</time>
      </trkpt>
      <trkpt lat="48.89914" lon="-0.47099">
        <ele>71</ele>
        <time>2023-11-01T17:29:48Z</time>
      </trkpt>
      <trkpt lat="48.89929" lon="-0.47183">
        <ele>72</ele>
        <time>2023-11-01T17:31:05Z</time>
      </trkpt>
      <trkpt lat="48.89946" lon="-0.47233">
        <ele>72</ele>
        <time>2023-11-01T17:31:54Z</time>
      </trkpt>
      <trkpt lat="48.89979" lon="-0.47301">
        <ele>70</ele>
        <time>2023-11-01T17:33:08Z</time>
      </trkpt>
      <trkpt lat="48.90039" lon="-0.47446">
        <ele>67</ele>
        <time>2023-11-01T17:35:38Z</time>
      </trkpt>
      <trkpt lat="48.90055" lon="-0.4746">
        <ele>67</ele>
        <time>2023-11-01T17:36:03Z</time>
      </trkpt>
      <trkpt lat="48.90123" lon="-0.47413">
        <ele>65</ele>
        <time>2023-11-01T17:37:43Z</time>
      </trkpt>
      <trkpt lat="48.90173" lon="-0.47373">
        <ele>64</ele>
        <time>2023-11-01T17:38:58Z</time>
      </trkpt>
      <trkpt lat="48.90206" lon="-0.4735">
        <ele>64</ele>
        <time>2023-11-01T17:39:47Z</time>
      </trkpt>
      <trkpt lat="48.90225" lon="-0.47355">
        <ele>64</ele>
        <time>2023-11-01T17:40:12Z</time>
      </trkpt>
      <trkpt lat="48.90243" lon="-0.47351">
        <ele>64</ele>
        <time>2023-11-01T17:40:37Z</time>
      </trkpt>
      <trkpt lat="48.90317" lon="-0.47347">
        <ele>62</ele>
        <time>2023-11-01T17:42:15Z</time>
      </trkpt>
      <trkpt lat="48.90334" lon="-0.47333">
        <ele>61</ele>
        <time>2023-11-01T17:42:41Z</time>
      </trkpt>
      <trkpt lat="48.90371" lon="-0.47319">
        <ele>60</ele>
        <time>2023-11-01T17:43:32Z</time>
      </trkpt>
      <trkpt lat="48.90405" lon="-0.47298">
        <ele>59</ele>
        <time>2023-11-01T17:44:21Z</time>
      </trkpt>
      <trkpt lat="48.90423" lon="-0.473">
        <ele>59</ele>
        <time>2023-11-01T17:44:45Z</time>
      </trkpt>
      <trkpt lat="48.90466" lon="-0.47356">
        <ele>60</ele>
        <time>2023-11-01T17:46:01Z</time>
      </trkpt>
      <trkpt lat="48.90474" lon="-0.47381">
        <ele>61</ele>
        <time>2023-11-01T17:46:25Z</time>
      </trkpt>
      <trkpt lat="48.90491" lon="-0.47392">
        <ele>62</ele>
        <time>2023-11-01T17:46:50Z</time>
      </trkpt>
      <trkpt lat="48.90523" lon="-0.47366">
        <ele>60</ele>
        <time>2023-11-01T17:47:38Z</time>
      </trkpt>
      <trkpt lat="48.9055" lon="-0.47327">
        <ele>58</ele>
        <time>2023-11-01T17:48:28Z</time>
      </trkpt>
      <trkpt lat="48.90566" lon="-0.4731">
        <ele>58</ele>
        <time>2023-11-01T17:48:54Z</time>
      </trkpt>
      <trkpt lat="48.90617" lon="-0.47282">
        <ele>56</ele>
        <time>2023-11-01T17:50:06Z</time>
      </trkpt>
      <trkpt lat="48.90654" lon="-0.47274">
        <ele>55</ele>
        <time>2023-11-01T17:50:56Z</time>
      </trkpt>
      <trkpt lat="48.90673" lon="-0.47272">
        <ele>55</ele>
        <time>2023-11-01T17:51:21Z</time>
      </trkpt>
      <trkpt lat="48.90691" lon="-0.47274">
        <ele>54</ele>
        <time>2023-11-01T17:51:46Z</time>
      </trkpt>
      <trkpt lat="48.90695" lon="-0.47301">
        <ele>55</ele>
        <time>2023-11-01T17:52:10Z</time>
      </trkpt>
      <trkpt lat="48.90702" lon="-0.47327">
        <ele>56</ele>
        <time>2023-11-01T17:52:34Z</time>
      </trkpt>
      <trkpt lat="48.9072" lon="-0.4733">
        <ele>56</ele>
        <time>2023-11-01T17:52:59Z</time>
      </trkpt>
      <trkpt lat="48.90738" lon="-0.47324">
        <ele>55</ele>
        <time>2023-11-01T17:53:23Z</time>
      </trkpt>
      <trkpt lat="48.90774" lon="-0.47321">
        <ele>54</ele>
        <time>2023-11-01T17:54:11Z</time>
      </trkpt>
    </trkseg>
  </trk>
</gpx>